sensor_id;sensor_type;location;lat;lon;timestamp;P1;durP1;ratioP1;P2;durP2;ratioP2
79414;SDS011;68864;44.972;19.612;2023-12-28T00:01:49;35.72;;;15.90;;
79414;SDS011;68864;44.972;19.612;2023-12-28T00:09:10;41.05;;;23.05;;
79414;SDS011;68864;44.972;19.612;2023-12-28T00:11:37;36.47;;;21.25;;
79414;SDS011;68864;44.972;19.612;2023-12-28T00:14:05;32.80;;;20.20;;
79414;SDS011;68864;44.972;19.612;2023-12-28T00:16:32;35.03;;;15.68;;
79414;SDS011;68864;44.972;19.612;2023-12-28T00:18:59;39.55;;;21.83;;
79414;SDS011;68864;44.972;19.612;2023-12-28T00:21:27;37.60;;;17.92;;
79414;SDS011;68864;44.972;19.612;2023-12-28T00:23:54;43.15;;;16.98;;
79414;SDS011;68864;44.972;19.612;2023-12-28T00:26:21;39.00;;;24.17;;
79414;SDS011;68864;44.972;19.612;2023-12-28T00:28:48;44.05;;;21.65;;
79414;SDS011;68864;44.972;19.612;2023-12-28T00:31:16;33.63;;;15.55;;
79414;SDS011;68864;44.972;19.612;2023-12-28T00:33:43;29.20;;;14.18;;
79414;SDS011;68864;44.972;19.612;2023-12-28T00:36:10;33.38;;;18.40;;
79414;SDS011;68864;44.972;19.612;2023-12-28T00:38:37;25.95;;;11.13;;
79414;SDS011;68864;44.972;19.612;2023-12-28T00:41:04;27.42;;;15.48;;
79414;SDS011;68864;44.972;19.612;2023-12-28T00:43:31;30.00;;;17.30;;
79414;SDS011;68864;44.972;19.612;2023-12-28T00:45:57;28.30;;;16.13;;
79414;SDS011;68864;44.972;19.612;2023-12-28T00:48:26;25.50;;;14.80;;
79414;SDS011;68864;44.972;19.612;2023-12-28T00:50:53;28.58;;;15.23;;
79414;SDS011;68864;44.972;19.612;2023-12-28T00:53:24;30.55;;;16.50;;
79414;SDS011;68864;44.972;19.612;2023-12-28T01:00:44;20.52;;;8.65;;
79414;SDS011;68864;44.972;19.612;2023-12-28T01:03:11;21.48;;;12.73;;
79414;SDS011;68864;44.972;19.612;2023-12-28T01:05:39;21.13;;;12.98;;
79414;SDS011;68864;44.972;19.612;2023-12-28T01:08:06;18.63;;;8.32;;
79414;SDS011;68864;44.972;19.612;2023-12-28T01:10:33;20.73;;;12.70;;
79414;SDS011;68864;44.972;19.612;2023-12-28T01:13:00;20.73;;;13.70;;
79414;SDS011;68864;44.972;19.612;2023-12-28T01:15:27;21.80;;;11.65;;
79414;SDS011;68864;44.972;19.612;2023-12-28T01:17:54;21.63;;;14.75;;
79414;SDS011;68864;44.972;19.612;2023-12-28T01:20:21;20.13;;;12.80;;
79414;SDS011;68864;44.972;19.612;2023-12-28T01:22:49;18.88;;;12.27;;
79414;SDS011;68864;44.972;19.612;2023-12-28T01:25:16;16.45;;;8.35;;
79414;SDS011;68864;44.972;19.612;2023-12-28T01:27:43;15.25;;;6.97;;
79414;SDS011;68864;44.972;19.612;2023-12-28T01:30:11;17.00;;;11.18;;
79414;SDS011;68864;44.972;19.612;2023-12-28T01:32:38;17.23;;;11.02;;
79414;SDS011;68864;44.972;19.612;2023-12-28T01:35:05;14.75;;;6.78;;
79414;SDS011;68864;44.972;19.612;2023-12-28T01:37:33;17.20;;;11.40;;
79414;SDS011;68864;44.972;19.612;2023-12-28T01:40:01;17.83;;;6.93;;
79414;SDS011;68864;44.972;19.612;2023-12-28T01:42:28;17.23;;;11.65;;
79414;SDS011;68864;44.972;19.612;2023-12-28T01:44:57;14.43;;;6.05;;
79414;SDS011;68864;44.972;19.612;2023-12-28T01:47:24;17.80;;;11.68;;
79414;SDS011;68864;44.972;19.612;2023-12-28T01:49:52;14.80;;;10.90;;
79414;SDS011;68864;44.972;19.612;2023-12-28T01:52:20;16.27;;;10.00;;
79414;SDS011;68864;44.972;19.612;2023-12-28T01:54:47;19.10;;;11.32;;
79414;SDS011;68864;44.972;19.612;2023-12-28T01:57:17;20.42;;;11.30;;
79414;SDS011;68864;44.972;19.612;2023-12-28T01:59:44;16.00;;;6.35;;
79414;SDS011;68864;44.972;19.612;2023-12-28T02:02:11;20.95;;;11.85;;
79414;SDS011;68864;44.972;19.612;2023-12-28T02:04:39;17.02;;;11.63;;
79414;SDS011;68864;44.972;19.612;2023-12-28T02:07:06;18.48;;;11.27;;
79414;SDS011;68864;44.972;19.612;2023-12-28T02:09:34;18.80;;;12.10;;
79414;SDS011;68864;44.972;19.612;2023-12-28T02:12:01;18.58;;;12.02;;
79414;SDS011;68864;44.972;19.612;2023-12-28T02:14:30;20.83;;;8.88;;
79414;SDS011;68864;44.972;19.612;2023-12-28T02:17:00;22.52;;;15.13;;
79414;SDS011;68864;44.972;19.612;2023-12-28T02:19:38;21.92;;;13.82;;
79414;SDS011;68864;44.972;19.612;2023-12-28T02:22:09;21.50;;;13.02;;
79414;SDS011;68864;44.972;19.612;2023-12-28T02:27:46;20.83;;;12.85;;
79414;SDS011;68864;44.972;19.612;2023-12-28T02:30:15;17.42;;;10.40;;
79414;SDS011;68864;44.972;19.612;2023-12-28T02:32:54;17.08;;;12.48;;
79414;SDS011;68864;44.972;19.612;2023-12-28T02:35:29;16.90;;;9.30;;
79414;SDS011;68864;44.972;19.612;2023-12-28T02:38:05;14.73;;;10.10;;
79414;SDS011;68864;44.972;19.612;2023-12-28T02:40:37;16.75;;;9.65;;
79414;SDS011;68864;44.972;19.612;2023-12-28T02:43:05;17.20;;;10.05;;
79414;SDS011;68864;44.972;19.612;2023-12-28T02:45:32;18.80;;;11.25;;
79414;SDS011;68864;44.972;19.612;2023-12-28T02:48:00;13.82;;;10.00;;
79414;SDS011;68864;44.972;19.612;2023-12-28T02:50:27;14.73;;;9.25;;
79414;SDS011;68864;44.972;19.612;2023-12-28T02:52:55;15.30;;;10.07;;
79414;SDS011;68864;44.972;19.612;2023-12-28T02:55:22;15.48;;;7.63;;
79414;SDS011;68864;44.972;19.612;2023-12-28T02:57:50;15.02;;;10.80;;
79414;SDS011;68864;44.972;19.612;2023-12-28T03:00:20;17.30;;;10.15;;
79414;SDS011;68864;44.972;19.612;2023-12-28T03:02:47;15.73;;;11.55;;
79414;SDS011;68864;44.972;19.612;2023-12-28T03:05:14;16.30;;;10.73;;
79414;SDS011;68864;44.972;19.612;2023-12-28T03:07:41;16.80;;;10.77;;
79414;SDS011;68864;44.972;19.612;2023-12-28T03:10:08;15.18;;;9.52;;
79414;SDS011;68864;44.972;19.612;2023-12-28T03:12:36;17.52;;;9.50;;
79414;SDS011;68864;44.972;19.612;2023-12-28T03:17:32;16.98;;;12.07;;
79414;SDS011;68864;44.972;19.612;2023-12-28T03:20:01;15.88;;;5.57;;
79414;SDS011;68864;44.972;19.612;2023-12-28T03:22:29;18.13;;;11.70;;
79414;SDS011;68864;44.972;19.612;2023-12-28T03:24:56;12.95;;;6.30;;
79414;SDS011;68864;44.972;19.612;2023-12-28T03:27:23;17.83;;;9.98;;
79414;SDS011;68864;44.972;19.612;2023-12-28T03:29:49;17.73;;;10.70;;
79414;SDS011;68864;44.972;19.612;2023-12-28T03:32:18;15.55;;;8.95;;
79414;SDS011;68864;44.972;19.612;2023-12-28T03:34:45;16.33;;;11.43;;
79414;SDS011;68864;44.972;19.612;2023-12-28T03:37:11;13.80;;;5.95;;
79414;SDS011;68864;44.972;19.612;2023-12-28T03:39:38;15.70;;;10.73;;
79414;SDS011;68864;44.972;19.612;2023-12-28T03:42:05;16.23;;;7.38;;
79414;SDS011;68864;44.972;19.612;2023-12-28T03:44:32;16.88;;;11.63;;
79414;SDS011;68864;44.972;19.612;2023-12-28T03:46:59;22.20;;;12.73;;
79414;SDS011;68864;44.972;19.612;2023-12-28T03:49:27;24.13;;;14.52;;
79414;SDS011;68864;44.972;19.612;2023-12-28T03:51:54;17.33;;;8.25;;
79414;SDS011;68864;44.972;19.612;2023-12-28T03:54:21;32.13;;;16.48;;
79414;SDS011;68864;44.972;19.612;2023-12-28T03:56:48;35.80;;;19.75;;
79414;SDS011;68864;44.972;19.612;2023-12-28T03:59:15;38.60;;;21.20;;
79414;SDS011;68864;44.972;19.612;2023-12-28T04:01:42;41.83;;;19.90;;
79414;SDS011;68864;44.972;19.612;2023-12-28T04:04:09;38.15;;;19.67;;
79414;SDS011;68864;44.972;19.612;2023-12-28T04:06:37;37.58;;;20.27;;
79414;SDS011;68864;44.972;19.612;2023-12-28T04:09:06;35.75;;;18.58;;
79414;SDS011;68864;44.972;19.612;2023-12-28T04:11:33;33.28;;;18.95;;
79414;SDS011;68864;44.972;19.612;2023-12-28T04:14:00;28.55;;;19.30;;
79414;SDS011;68864;44.972;19.612;2023-12-28T04:16:27;28.05;;;16.80;;
79414;SDS011;68864;44.972;19.612;2023-12-28T04:18:54;24.48;;;15.55;;
79414;SDS011;68864;44.972;19.612;2023-12-28T04:21:21;24.90;;;15.50;;
79414;SDS011;68864;44.972;19.612;2023-12-28T04:23:49;29.65;;;18.42;;
79414;SDS011;68864;44.972;19.612;2023-12-28T04:26:17;25.58;;;15.35;;
79414;SDS011;68864;44.972;19.612;2023-12-28T04:28:44;26.75;;;17.23;;
79414;SDS011;68864;44.972;19.612;2023-12-28T04:31:11;22.83;;;15.35;;
79414;SDS011;68864;44.972;19.612;2023-12-28T04:33:38;29.13;;;17.83;;
79414;SDS011;68864;44.972;19.612;2023-12-28T04:36:05;24.25;;;16.23;;
79414;SDS011;68864;44.972;19.612;2023-12-28T04:41:01;27.45;;;15.93;;
79414;SDS011;68864;44.972;19.612;2023-12-28T04:43:28;26.90;;;16.17;;
79414;SDS011;68864;44.972;19.612;2023-12-28T04:45:55;25.65;;;15.95;;
79414;SDS011;68864;44.972;19.612;2023-12-28T04:48:22;23.98;;;12.95;;
79414;SDS011;68864;44.972;19.612;2023-12-28T04:50:51;39.42;;;23.40;;
79414;SDS011;68864;44.972;19.612;2023-12-28T04:53:18;63.05;;;36.25;;
79414;SDS011;68864;44.972;19.612;2023-12-28T04:58:14;67.40;;;38.47;;
79414;SDS011;68864;44.972;19.612;2023-12-28T05:00:41;50.97;;;25.38;;
79414;SDS011;68864;44.972;19.612;2023-12-28T05:03:08;49.90;;;30.92;;
79414;SDS011;68864;44.972;19.612;2023-12-28T05:05:35;49.70;;;31.88;;
79414;SDS011;68864;44.972;19.612;2023-12-28T05:08:02;57.95;;;35.40;;
79414;SDS011;68864;44.972;19.612;2023-12-28T05:12:56;56.40;;;32.25;;
79414;SDS011;68864;44.972;19.612;2023-12-28T05:15:24;77.32;;;41.38;;
79414;SDS011;68864;44.972;19.612;2023-12-28T05:17:51;56.92;;;28.08;;
79414;SDS011;68864;44.972;19.612;2023-12-28T05:20:18;43.63;;;23.20;;
79414;SDS011;68864;44.972;19.612;2023-12-28T05:22:45;38.05;;;25.20;;
79414;SDS011;68864;44.972;19.612;2023-12-28T05:25:12;40.50;;;26.13;;
79414;SDS011;68864;44.972;19.612;2023-12-28T05:27:39;51.42;;;22.48;;
79414;SDS011;68864;44.972;19.612;2023-12-28T05:30:08;59.13;;;37.97;;
79414;SDS011;68864;44.972;19.612;2023-12-28T05:32:37;53.22;;;29.70;;
79414;SDS011;68864;44.972;19.612;2023-12-28T05:35:04;36.03;;;17.70;;
79414;SDS011;68864;44.972;19.612;2023-12-28T05:37:32;43.80;;;20.35;;
79414;SDS011;68864;44.972;19.612;2023-12-28T05:39:59;49.40;;;27.95;;
79414;SDS011;68864;44.972;19.612;2023-12-28T05:44:53;41.70;;;23.83;;
79414;SDS011;68864;44.972;19.612;2023-12-28T05:47:19;49.20;;;32.35;;
79414;SDS011;68864;44.972;19.612;2023-12-28T05:49:48;47.05;;;27.65;;
79414;SDS011;68864;44.972;19.612;2023-12-28T05:52:15;55.72;;;34.80;;
79414;SDS011;68864;44.972;19.612;2023-12-28T05:54:43;48.33;;;30.02;;
79414;SDS011;68864;44.972;19.612;2023-12-28T05:57:10;45.85;;;28.30;;
79414;SDS011;68864;44.972;19.612;2023-12-28T05:59:38;42.17;;;19.95;;
79414;SDS011;68864;44.972;19.612;2023-12-28T06:02:06;46.83;;;27.27;;
79414;SDS011;68864;44.972;19.612;2023-12-28T06:04:33;44.95;;;22.15;;
79414;SDS011;68864;44.972;19.612;2023-12-28T06:07:02;48.08;;;21.08;;
79414;SDS011;68864;44.972;19.612;2023-12-28T06:09:30;61.60;;;31.38;;
79414;SDS011;68864;44.972;19.612;2023-12-28T06:11:56;61.05;;;32.28;;
79414;SDS011;68864;44.972;19.612;2023-12-28T06:14:22;65.57;;;37.05;;
79414;SDS011;68864;44.972;19.612;2023-12-28T06:16:49;57.45;;;29.08;;
79414;SDS011;68864;44.972;19.612;2023-12-28T06:19:16;53.78;;;33.08;;
79414;SDS011;68864;44.972;19.612;2023-12-28T06:21:43;56.08;;;36.70;;
79414;SDS011;68864;44.972;19.612;2023-12-28T06:24:11;78.28;;;31.00;;
79414;SDS011;68864;44.972;19.612;2023-12-28T06:26:39;75.55;;;36.22;;
79414;SDS011;68864;44.972;19.612;2023-12-28T06:29:07;68.05;;;30.88;;
79414;SDS011;68864;44.972;19.612;2023-12-28T06:31:34;63.40;;;29.73;;
79414;SDS011;68864;44.972;19.612;2023-12-28T06:34:01;52.17;;;26.73;;
79414;SDS011;68864;44.972;19.612;2023-12-28T06:36:29;55.42;;;34.40;;
79414;SDS011;68864;44.972;19.612;2023-12-28T06:38:56;60.42;;;36.65;;
79414;SDS011;68864;44.972;19.612;2023-12-28T06:41:24;54.15;;;28.90;;
79414;SDS011;68864;44.972;19.612;2023-12-28T06:43:51;61.40;;;35.63;;
79414;SDS011;68864;44.972;19.612;2023-12-28T06:46:18;62.35;;;37.03;;
79414;SDS011;68864;44.972;19.612;2023-12-28T06:48:45;59.90;;;34.65;;
79414;SDS011;68864;44.972;19.612;2023-12-28T06:51:16;53.05;;;29.10;;
79414;SDS011;68864;44.972;19.612;2023-12-28T06:53:43;67.38;;;39.22;;
79414;SDS011;68864;44.972;19.612;2023-12-28T06:56:10;65.47;;;31.23;;
79414;SDS011;68864;44.972;19.612;2023-12-28T06:58:38;78.43;;;43.30;;
79414;SDS011;68864;44.972;19.612;2023-12-28T07:01:05;85.45;;;49.63;;
79414;SDS011;68864;44.972;19.612;2023-12-28T07:03:32;80.25;;;46.83;;
79414;SDS011;68864;44.972;19.612;2023-12-28T07:05:59;78.07;;;41.38;;
79414;SDS011;68864;44.972;19.612;2023-12-28T07:08:26;74.10;;;46.22;;
79414;SDS011;68864;44.972;19.612;2023-12-28T07:10:53;81.93;;;51.97;;
79414;SDS011;68864;44.972;19.612;2023-12-28T07:13:21;74.60;;;48.72;;
79414;SDS011;68864;44.972;19.612;2023-12-28T07:15:49;85.32;;;55.30;;
79414;SDS011;68864;44.972;19.612;2023-12-28T07:18:16;89.70;;;52.80;;
79414;SDS011;68864;44.972;19.612;2023-12-28T07:20:43;98.25;;;68.60;;
79414;SDS011;68864;44.972;19.612;2023-12-28T07:23:09;108.63;;;71.68;;
79414;SDS011;68864;44.972;19.612;2023-12-28T07:25:36;115.50;;;71.70;;
79414;SDS011;68864;44.972;19.612;2023-12-28T07:28:04;105.18;;;70.47;;
79414;SDS011;68864;44.972;19.612;2023-12-28T07:30:31;98.93;;;69.25;;
79414;SDS011;68864;44.972;19.612;2023-12-28T07:32:59;106.13;;;71.03;;
79414;SDS011;68864;44.972;19.612;2023-12-28T07:35:26;128.52;;;86.13;;
79414;SDS011;68864;44.972;19.612;2023-12-28T07:37:53;144.90;;;88.60;;
79414;SDS011;68864;44.972;19.612;2023-12-28T07:40:21;143.60;;;96.45;;
79414;SDS011;68864;44.972;19.612;2023-12-28T07:42:48;159.20;;;100.85;;
79414;SDS011;68864;44.972;19.612;2023-12-28T07:45:15;160.45;;;107.28;;
79414;SDS011;68864;44.972;19.612;2023-12-28T07:47:42;160.95;;;107.97;;
79414;SDS011;68864;44.972;19.612;2023-12-28T07:50:11;140.20;;;98.55;;
79414;SDS011;68864;44.972;19.612;2023-12-28T07:52:38;121.00;;;79.90;;
79414;SDS011;68864;44.972;19.612;2023-12-28T07:55:05;97.18;;;71.00;;
79414;SDS011;68864;44.972;19.612;2023-12-28T07:57:32;91.40;;;64.13;;
79414;SDS011;68864;44.972;19.612;2023-12-28T07:59:59;88.80;;;66.20;;
79414;SDS011;68864;44.972;19.612;2023-12-28T08:02:26;107.95;;;81.97;;
79414;SDS011;68864;44.972;19.612;2023-12-28T08:07:21;115.47;;;83.22;;
79414;SDS011;68864;44.972;19.612;2023-12-28T08:09:48;116.32;;;81.80;;
79414;SDS011;68864;44.972;19.612;2023-12-28T08:14:42;108.93;;;70.68;;
79414;SDS011;68864;44.972;19.612;2023-12-28T08:17:09;92.20;;;71.90;;
79414;SDS011;68864;44.972;19.612;2023-12-28T08:19:36;70.55;;;54.67;;
79414;SDS011;68864;44.972;19.612;2023-12-28T08:24:31;59.22;;;46.85;;
79414;SDS011;68864;44.972;19.612;2023-12-28T08:26:58;56.90;;;43.10;;
79414;SDS011;68864;44.972;19.612;2023-12-28T08:29:25;69.38;;;51.00;;
79414;SDS011;68864;44.972;19.612;2023-12-28T08:31:52;54.67;;;37.25;;
79414;SDS011;68864;44.972;19.612;2023-12-28T08:34:20;51.00;;;40.65;;
79414;SDS011;68864;44.972;19.612;2023-12-28T08:36:47;50.70;;;39.22;;
79414;SDS011;68864;44.972;19.612;2023-12-28T08:39:14;54.97;;;43.55;;
79414;SDS011;68864;44.972;19.612;2023-12-28T08:41:42;56.08;;;43.00;;
79414;SDS011;68864;44.972;19.612;2023-12-28T08:44:09;54.45;;;43.67;;
79414;SDS011;68864;44.972;19.612;2023-12-28T08:46:36;59.17;;;43.70;;
79414;SDS011;68864;44.972;19.612;2023-12-28T08:49:03;58.17;;;45.63;;
79414;SDS011;68864;44.972;19.612;2023-12-28T08:51:30;63.22;;;49.10;;
79414;SDS011;68864;44.972;19.612;2023-12-28T08:53:57;66.05;;;51.67;;
79414;SDS011;68864;44.972;19.612;2023-12-28T08:56:24;61.85;;;46.90;;
79414;SDS011;68864;44.972;19.612;2023-12-28T08:58:52;54.60;;;44.25;;
79414;SDS011;68864;44.972;19.612;2023-12-28T09:01:19;54.63;;;45.20;;
79414;SDS011;68864;44.972;19.612;2023-12-28T09:03:47;59.78;;;46.88;;
79414;SDS011;68864;44.972;19.612;2023-12-28T09:06:14;49.28;;;41.28;;
79414;SDS011;68864;44.972;19.612;2023-12-28T09:08:42;55.47;;;42.58;;
79414;SDS011;68864;44.972;19.612;2023-12-28T09:11:09;55.83;;;46.90;;
79414;SDS011;68864;44.972;19.612;2023-12-28T09:13:37;54.90;;;44.47;;
79414;SDS011;68864;44.972;19.612;2023-12-28T09:16:07;52.17;;;44.30;;
79414;SDS011;68864;44.972;19.612;2023-12-28T09:18:34;52.72;;;46.97;;
79414;SDS011;68864;44.972;19.612;2023-12-28T09:21:02;52.45;;;43.83;;
79414;SDS011;68864;44.972;19.612;2023-12-28T09:23:30;48.42;;;42.78;;
79414;SDS011;68864;44.972;19.612;2023-12-28T09:25:57;44.13;;;39.35;;
79414;SDS011;68864;44.972;19.612;2023-12-28T09:28:24;40.70;;;35.38;;
79414;SDS011;68864;44.972;19.612;2023-12-28T09:30:51;40.97;;;35.80;;
79414;SDS011;68864;44.972;19.612;2023-12-28T09:33:19;43.78;;;37.63;;
79414;SDS011;68864;44.972;19.612;2023-12-28T09:35:46;37.08;;;32.67;;
79414;SDS011;68864;44.972;19.612;2023-12-28T09:38:13;40.15;;;35.85;;
79414;SDS011;68864;44.972;19.612;2023-12-28T09:40:41;39.47;;;32.35;;
79414;SDS011;68864;44.972;19.612;2023-12-28T09:43:11;38.80;;;31.70;;
79414;SDS011;68864;44.972;19.612;2023-12-28T09:45:41;38.05;;;33.22;;
79414;SDS011;68864;44.972;19.612;2023-12-28T09:48:08;35.40;;;27.67;;
79414;SDS011;68864;44.972;19.612;2023-12-28T09:50:39;45.17;;;33.17;;
79414;SDS011;68864;44.972;19.612;2023-12-28T09:53:06;39.15;;;34.80;;
79414;SDS011;68864;44.972;19.612;2023-12-28T09:55:33;41.85;;;31.08;;
79414;SDS011;68864;44.972;19.612;2023-12-28T09:58:00;42.10;;;32.30;;
79414;SDS011;68864;44.972;19.612;2023-12-28T10:00:30;37.72;;;32.75;;
79414;SDS011;68864;44.972;19.612;2023-12-28T10:02:57;41.47;;;37.03;;
79414;SDS011;68864;44.972;19.612;2023-12-28T10:05:24;40.67;;;35.70;;
79414;SDS011;68864;44.972;19.612;2023-12-28T10:07:53;39.60;;;31.45;;
79414;SDS011;68864;44.972;19.612;2023-12-28T10:10:22;43.10;;;35.92;;
79414;SDS011;68864;44.972;19.612;2023-12-28T10:12:49;42.92;;;34.83;;
79414;SDS011;68864;44.972;19.612;2023-12-28T10:15:17;40.78;;;34.92;;
79414;SDS011;68864;44.972;19.612;2023-12-28T10:17:44;39.40;;;33.83;;
79414;SDS011;68864;44.972;19.612;2023-12-28T10:20:12;42.50;;;36.70;;
79414;SDS011;68864;44.972;19.612;2023-12-28T10:22:40;42.97;;;32.15;;
79414;SDS011;68864;44.972;19.612;2023-12-28T10:25:09;48.58;;;39.38;;
79414;SDS011;68864;44.972;19.612;2023-12-28T10:27:37;48.83;;;39.47;;
79414;SDS011;68864;44.972;19.612;2023-12-28T10:30:06;56.40;;;42.45;;
79414;SDS011;68864;44.972;19.612;2023-12-28T10:32:34;55.15;;;43.03;;
79414;SDS011;68864;44.972;19.612;2023-12-28T10:35:01;47.70;;;36.55;;
79414;SDS011;68864;44.972;19.612;2023-12-28T10:37:28;66.47;;;47.17;;
79414;SDS011;68864;44.972;19.612;2023-12-28T10:39:59;43.55;;;38.30;;
79414;SDS011;68864;44.972;19.612;2023-12-28T10:42:31;41.70;;;32.28;;
79414;SDS011;68864;44.972;19.612;2023-12-28T10:45:01;36.58;;;26.33;;
79414;SDS011;68864;44.972;19.612;2023-12-28T10:47:31;37.30;;;30.23;;
79414;SDS011;68864;44.972;19.612;2023-12-28T10:50:00;44.75;;;32.72;;
79414;SDS011;68864;44.972;19.612;2023-12-28T10:52:30;51.15;;;32.55;;
79414;SDS011;68864;44.972;19.612;2023-12-28T10:55:01;45.85;;;30.50;;
79414;SDS011;68864;44.972;19.612;2023-12-28T10:57:48;63.53;;;46.75;;
79414;SDS011;68864;44.972;19.612;2023-12-28T11:00:25;46.10;;;36.75;;
79414;SDS011;68864;44.972;19.612;2023-12-28T11:02:56;43.60;;;31.15;;
79414;SDS011;68864;44.972;19.612;2023-12-28T11:05:28;44.70;;;32.55;;
79414;SDS011;68864;44.972;19.612;2023-12-28T11:07:57;40.83;;;29.13;;
79414;SDS011;68864;44.972;19.612;2023-12-28T11:10:25;44.33;;;33.55;;
79414;SDS011;68864;44.972;19.612;2023-12-28T11:12:56;46.10;;;31.77;;
79414;SDS011;68864;44.972;19.612;2023-12-28T11:15:24;51.83;;;36.47;;
79414;SDS011;68864;44.972;19.612;2023-12-28T11:17:52;48.70;;;36.08;;
79414;SDS011;68864;44.972;19.612;2023-12-28T11:22:46;40.67;;;31.27;;
79414;SDS011;68864;44.972;19.612;2023-12-28T11:25:15;42.30;;;31.23;;
79414;SDS011;68864;44.972;19.612;2023-12-28T11:27:43;49.67;;;31.95;;
79414;SDS011;68864;44.972;19.612;2023-12-28T11:30:12;43.58;;;31.65;;
79414;SDS011;68864;44.972;19.612;2023-12-28T11:32:40;45.50;;;32.92;;
79414;SDS011;68864;44.972;19.612;2023-12-28T11:35:09;48.15;;;31.95;;
79414;SDS011;68864;44.972;19.612;2023-12-28T11:37:38;44.20;;;30.65;;
79414;SDS011;68864;44.972;19.612;2023-12-28T11:40:10;44.35;;;31.23;;
79414;SDS011;68864;44.972;19.612;2023-12-28T11:42:47;44.15;;;31.63;;
79414;SDS011;68864;44.972;19.612;2023-12-28T11:45:17;49.42;;;34.65;;
79414;SDS011;68864;44.972;19.612;2023-12-28T11:47:44;51.53;;;34.15;;
79414;SDS011;68864;44.972;19.612;2023-12-28T11:50:12;46.90;;;32.58;;
79414;SDS011;68864;44.972;19.612;2023-12-28T11:52:39;45.25;;;33.83;;
79414;SDS011;68864;44.972;19.612;2023-12-28T11:57:33;48.17;;;32.70;;
79414;SDS011;68864;44.972;19.612;2023-12-28T12:02:28;43.58;;;26.63;;
79414;SDS011;68864;44.972;19.612;2023-12-28T12:04:55;46.17;;;31.27;;
79414;SDS011;68864;44.972;19.612;2023-12-28T12:07:23;53.65;;;30.05;;
79414;SDS011;68864;44.972;19.612;2023-12-28T12:09:54;50.25;;;33.25;;
79414;SDS011;68864;44.972;19.612;2023-12-28T12:12:22;48.42;;;33.05;;
79414;SDS011;68864;44.972;19.612;2023-12-28T12:14:48;44.80;;;32.42;;
79414;SDS011;68864;44.972;19.612;2023-12-28T12:17:15;47.88;;;32.63;;
79414;SDS011;68864;44.972;19.612;2023-12-28T12:19:45;44.63;;;31.48;;
79414;SDS011;68864;44.972;19.612;2023-12-28T12:22:15;46.60;;;32.28;;
79414;SDS011;68864;44.972;19.612;2023-12-28T12:24:43;48.83;;;33.17;;
79414;SDS011;68864;44.972;19.612;2023-12-28T12:27:11;53.33;;;35.47;;
79414;SDS011;68864;44.972;19.612;2023-12-28T12:29:38;48.20;;;35.20;;
79414;SDS011;68864;44.972;19.612;2023-12-28T12:32:05;47.22;;;32.47;;
79414;SDS011;68864;44.972;19.612;2023-12-28T12:34:32;45.70;;;32.95;;
79414;SDS011;68864;44.972;19.612;2023-12-28T12:37:01;47.08;;;33.30;;
79414;SDS011;68864;44.972;19.612;2023-12-28T12:39:29;50.90;;;32.95;;
79414;SDS011;68864;44.972;19.612;2023-12-28T12:41:56;48.42;;;33.30;;
79414;SDS011;68864;44.972;19.612;2023-12-28T12:44:23;53.45;;;37.30;;
79414;SDS011;68864;44.972;19.612;2023-12-28T12:46:56;48.60;;;35.40;;
79414;SDS011;68864;44.972;19.612;2023-12-28T12:49:23;48.25;;;35.72;;
79414;SDS011;68864;44.972;19.612;2023-12-28T12:51:50;51.22;;;34.70;;
79414;SDS011;68864;44.972;19.612;2023-12-28T12:56:45;48.38;;;30.95;;
79414;SDS011;68864;44.972;19.612;2023-12-28T12:59:13;44.83;;;33.58;;
79414;SDS011;68864;44.972;19.612;2023-12-28T13:01:42;54.05;;;36.00;;
79414;SDS011;68864;44.972;19.612;2023-12-28T13:06:36;49.85;;;32.42;;
79414;SDS011;68864;44.972;19.612;2023-12-28T13:09:03;51.05;;;34.63;;
79414;SDS011;68864;44.972;19.612;2023-12-28T13:11:33;48.10;;;33.90;;
79414;SDS011;68864;44.972;19.612;2023-12-28T13:14:00;47.65;;;33.25;;
79414;SDS011;68864;44.972;19.612;2023-12-28T13:16:27;46.63;;;28.75;;
79414;SDS011;68864;44.972;19.612;2023-12-28T13:18:54;46.78;;;32.30;;
79414;SDS011;68864;44.972;19.612;2023-12-28T13:21:21;46.30;;;32.42;;
79414;SDS011;68864;44.972;19.612;2023-12-28T13:23:48;47.25;;;30.80;;
79414;SDS011;68864;44.972;19.612;2023-12-28T13:26:15;50.33;;;35.33;;
79414;SDS011;68864;44.972;19.612;2023-12-28T13:28:43;51.13;;;35.30;;
79414;SDS011;68864;44.972;19.612;2023-12-28T13:31:10;55.28;;;36.22;;
79414;SDS011;68864;44.972;19.612;2023-12-28T13:33:37;62.92;;;38.22;;
79414;SDS011;68864;44.972;19.612;2023-12-28T13:36:04;60.47;;;41.30;;
79414;SDS011;68864;44.972;19.612;2023-12-28T13:38:31;59.65;;;40.00;;
79414;SDS011;68864;44.972;19.612;2023-12-28T13:40:58;60.47;;;37.67;;
79414;SDS011;68864;44.972;19.612;2023-12-28T13:43:25;62.60;;;40.17;;
79414;SDS011;68864;44.972;19.612;2023-12-28T13:45:53;71.60;;;46.53;;
79414;SDS011;68864;44.972;19.612;2023-12-28T13:48:20;63.42;;;42.15;;
79414;SDS011;68864;44.972;19.612;2023-12-28T13:50:47;68.40;;;42.78;;
79414;SDS011;68864;44.972;19.612;2023-12-28T13:53:16;63.10;;;40.88;;
79414;SDS011;68864;44.972;19.612;2023-12-28T13:55:43;61.10;;;39.25;;
79414;SDS011;68864;44.972;19.612;2023-12-28T13:58:10;65.97;;;44.30;;
79414;SDS011;68864;44.972;19.612;2023-12-28T14:00:36;71.95;;;44.40;;
79414;SDS011;68864;44.972;19.612;2023-12-28T14:03:05;67.80;;;44.85;;
79414;SDS011;68864;44.972;19.612;2023-12-28T14:05:32;68.60;;;48.30;;
79414;SDS011;68864;44.972;19.612;2023-12-28T14:07:59;75.35;;;48.05;;
79414;SDS011;68864;44.972;19.612;2023-12-28T14:10:25;66.22;;;38.05;;
79414;SDS011;68864;44.972;19.612;2023-12-28T14:12:52;63.05;;;43.72;;
79414;SDS011;68864;44.972;19.612;2023-12-28T14:15:19;70.20;;;44.13;;
79414;SDS011;68864;44.972;19.612;2023-12-28T14:17:47;62.58;;;42.85;;
79414;SDS011;68864;44.972;19.612;2023-12-28T14:20:15;80.35;;;52.10;;
79414;SDS011;68864;44.972;19.612;2023-12-28T14:22:42;71.80;;;41.50;;
79414;SDS011;68864;44.972;19.612;2023-12-28T14:25:10;74.82;;;49.05;;
79414;SDS011;68864;44.972;19.612;2023-12-28T14:27:38;76.80;;;43.13;;
79414;SDS011;68864;44.972;19.612;2023-12-28T14:30:06;82.43;;;52.88;;
79414;SDS011;68864;44.972;19.612;2023-12-28T14:32:35;75.03;;;51.17;;
79414;SDS011;68864;44.972;19.612;2023-12-28T14:35:03;83.93;;;54.45;;
79414;SDS011;68864;44.972;19.612;2023-12-28T14:37:32;90.70;;;57.25;;
79414;SDS011;68864;44.972;19.612;2023-12-28T14:39:58;93.88;;;57.97;;
79414;SDS011;68864;44.972;19.612;2023-12-28T14:42:31;92.05;;;50.70;;
79414;SDS011;68864;44.972;19.612;2023-12-28T14:44:58;90.20;;;58.17;;
79414;SDS011;68864;44.972;19.612;2023-12-28T14:47:26;93.25;;;60.88;;
79414;SDS011;68864;44.972;19.612;2023-12-28T14:49:53;113.35;;;68.85;;
79414;SDS011;68864;44.972;19.612;2023-12-28T14:52:21;109.55;;;67.47;;
79414;SDS011;68864;44.972;19.612;2023-12-28T14:54:49;91.47;;;57.65;;
79414;SDS011;68864;44.972;19.612;2023-12-28T14:57:19;101.70;;;60.03;;